sensor_id;sensor_type;location;lat;lon;timestamp;P1;durP1;ratioP1;P2;durP2;ratioP2
21657;SDS011;10990;48.174;9.782;2023-01-05T00:00:09;1.43;;;1.23;;
21657;SDS011;10990;48.174;9.782;2023-01-05T00:02:40;1.50;;;1.10;;
21657;SDS011;10990;48.174;9.782;2023-01-05T00:05:07;1.37;;;1.07;;
21657;SDS011;10990;48.174;9.782;2023-01-05T00:07:35;1.40;;;1.10;;
21657;SDS011;10990;48.174;9.782;2023-01-05T00:10:02;2.00;;;1.10;;
21657;SDS011;10990;48.174;9.782;2023-01-05T00:12:49;1.00;;;0.90;;
21657;SDS011;10990;48.174;9.782;2023-01-05T00:15:35;1.70;;;1.10;;
21657;SDS011;10990;48.174;9.782;2023-01-05T00:18:19;1.17;;;1.07;;
21657;SDS011;10990;48.174;9.782;2023-01-05T00:21:07;1.03;;;0.97;;
21657;SDS011;10990;48.174;9.782;2023-01-05T00:23:55;0.90;;;0.80;;
21657;SDS011;10990;48.174;9.782;2023-01-05T00:26:22;0.90;;;0.87;;
21657;SDS011;10990;48.174;9.782;2023-01-05T00:28:48;1.10;;;1.00;;
21657;SDS011;10990;48.174;9.782;2023-01-05T00:31:16;1.10;;;1.00;;
21657;SDS011;10990;48.174;9.782;2023-01-05T00:33:43;1.10;;;1.00;;
21657;SDS011;10990;48.174;9.782;2023-01-05T00:36:10;0.83;;;0.80;;
21657;SDS011;10990;48.174;9.782;2023-01-05T00:38:37;1.33;;;0.90;;
21657;SDS011;10990;48.174;9.782;2023-01-05T00:41:05;0.80;;;0.80;;
21657;SDS011;10990;48.174;9.782;2023-01-05T00:43:31;0.90;;;0.70;;
21657;SDS011;10990;48.174;9.782;2023-01-05T00:45:58;0.97;;;0.90;;
21657;SDS011;10990;48.174;9.782;2023-01-05T00:48:26;1.87;;;0.80;;
21657;SDS011;10990;48.174;9.782;2023-01-05T00:50:53;0.90;;;0.77;;
21657;SDS011;10990;48.174;9.782;2023-01-05T00:53:19;1.23;;;0.90;;
21657;SDS011;10990;48.174;9.782;2023-01-05T00:55:54;1.87;;;0.80;;
21657;SDS011;10990;48.174;9.782;2023-01-05T00:58:21;0.70;;;0.70;;
21657;SDS011;10990;48.174;9.782;2023-01-05T01:00:47;0.80;;;0.73;;
21657;SDS011;10990;48.174;9.782;2023-01-05T01:03:14;1.33;;;0.80;;
21657;SDS011;10990;48.174;9.782;2023-01-05T01:05:42;1.47;;;0.80;;
21657;SDS011;10990;48.174;9.782;2023-01-05T01:08:09;0.63;;;0.63;;
21657;SDS011;10990;48.174;9.782;2023-01-05T01:10:37;0.80;;;0.60;;
21657;SDS011;10990;48.174;9.782;2023-01-05T01:13:04;0.80;;;0.77;;
21657;SDS011;10990;48.174;9.782;2023-01-05T01:15:31;0.73;;;0.73;;
21657;SDS011;10990;48.174;9.782;2023-01-05T01:17:58;0.70;;;0.70;;
21657;SDS011;10990;48.174;9.782;2023-01-05T01:20:25;0.60;;;0.60;;
21657;SDS011;10990;48.174;9.782;2023-01-05T01:22:53;1.50;;;0.63;;
21657;SDS011;10990;48.174;9.782;2023-01-05T01:25:20;0.90;;;0.60;;
21657;SDS011;10990;48.174;9.782;2023-01-05T01:27:47;1.77;;;0.80;;
21657;SDS011;10990;48.174;9.782;2023-01-05T01:30:15;0.93;;;0.70;;
21657;SDS011;10990;48.174;9.782;2023-01-05T01:32:44;0.70;;;0.70;;
21657;SDS011;10990;48.174;9.782;2023-01-05T01:35:10;0.40;;;0.40;;
21657;SDS011;10990;48.174;9.782;2023-01-05T01:37:38;0.60;;;0.60;;
21657;SDS011;10990;48.174;9.782;2023-01-05T01:40:07;0.70;;;0.70;;
21657;SDS011;10990;48.174;9.782;2023-01-05T01:42:35;0.77;;;0.60;;
21657;SDS011;10990;48.174;9.782;2023-01-05T01:45:04;0.70;;;0.40;;
21657;SDS011;10990;48.174;9.782;2023-01-05T01:47:44;0.60;;;0.60;;
21657;SDS011;10990;48.174;9.782;2023-01-05T01:50:14;0.40;;;0.40;;
21657;SDS011;10990;48.174;9.782;2023-01-05T01:52:46;0.50;;;0.50;;
21657;SDS011;10990;48.174;9.782;2023-01-05T01:55:17;0.57;;;0.57;;
21657;SDS011;10990;48.174;9.782;2023-01-05T01:57:44;0.53;;;0.53;;
21657;SDS011;10990;48.174;9.782;2023-01-05T02:00:13;0.60;;;0.60;;
21657;SDS011;10990;48.174;9.782;2023-01-05T02:02:44;0.60;;;0.60;;
21657;SDS011;10990;48.174;9.782;2023-01-05T02:05:13;0.60;;;0.60;;
21657;SDS011;10990;48.174;9.782;2023-01-05T02:07:43;0.63;;;0.53;;
21657;SDS011;10990;48.174;9.782;2023-01-05T02:10:12;0.40;;;0.40;;
21657;SDS011;10990;48.174;9.782;2023-01-05T02:12:44;0.50;;;0.50;;
21657;SDS011;10990;48.174;9.782;2023-01-05T02:15:25;0.73;;;0.50;;
21657;SDS011;10990;48.174;9.782;2023-01-05T02:18:04;0.60;;;0.60;;
21657;SDS011;10990;48.174;9.782;2023-01-05T02:20:50;0.60;;;0.60;;
21657;SDS011;10990;48.174;9.782;2023-01-05T02:23:40;2.00;;;0.40;;
21657;SDS011;10990;48.174;9.782;2023-01-05T02:29:39;0.50;;;0.50;;
21657;SDS011;10990;48.174;9.782;2023-01-05T02:32:18;0.47;;;0.47;;
21657;SDS011;10990;48.174;9.782;2023-01-05T02:34:51;0.73;;;0.60;;
21657;SDS011;10990;48.174;9.782;2023-01-05T02:37:29;0.70;;;0.33;;
21657;SDS011;10990;48.174;9.782;2023-01-05T02:40:02;1.17;;;0.50;;
21657;SDS011;10990;48.174;9.782;2023-01-05T02:42:37;0.60;;;0.50;;
21657;SDS011;10990;48.174;9.782;2023-01-05T02:45:07;0.40;;;0.40;;
21657;SDS011;10990;48.174;9.782;2023-01-05T02:47:39;0.40;;;0.40;;
21657;SDS011;10990;48.174;9.782;2023-01-05T02:50:09;0.40;;;0.40;;
21657;SDS011;10990;48.174;9.782;2023-01-05T02:52:43;0.43;;;0.43;;
21657;SDS011;10990;48.174;9.782;2023-01-05T02:55:17;0.63;;;0.57;;
21657;SDS011;10990;48.174;9.782;2023-01-05T02:57:49;0.40;;;0.40;;
21657;SDS011;10990;48.174;9.782;2023-01-05T03:00:24;0.40;;;0.40;;
21657;SDS011;10990;48.174;9.782;2023-01-05T03:02:56;0.60;;;0.60;;
21657;SDS011;10990;48.174;9.782;2023-01-05T03:05:28;0.70;;;0.63;;
21657;SDS011;10990;48.174;9.782;2023-01-05T03:08:02;0.60;;;0.60;;
21657;SDS011;10990;48.174;9.782;2023-01-05T03:10:41;0.53;;;0.53;;
21657;SDS011;10990;48.174;9.782;2023-01-05T03:13:35;0.50;;;0.50;;
21657;SDS011;10990;48.174;9.782;2023-01-05T03:16:09;0.50;;;0.50;;
21657;SDS011;10990;48.174;9.782;2023-01-05T03:18:43;0.40;;;0.40;;
21657;SDS011;10990;48.174;9.782;2023-01-05T03:21:30;0.50;;;0.50;;
21657;SDS011;10990;48.174;9.782;2023-01-05T03:24:15;0.50;;;0.50;;
21657;SDS011;10990;48.174;9.782;2023-01-05T03:27:01;0.50;;;0.50;;
21657;SDS011;10990;48.174;9.782;2023-01-05T03:29:47;0.57;;;0.50;;
21657;SDS011;10990;48.174;9.782;2023-01-05T03:32:32;1.43;;;0.50;;
21657;SDS011;10990;48.174;9.782;2023-01-05T03:35:21;0.50;;;0.50;;
21657;SDS011;10990;48.174;9.782;2023-01-05T03:37:58;0.50;;;0.50;;
21657;SDS011;10990;48.174;9.782;2023-01-05T03:40:33;0.60;;;0.57;;
21657;SDS011;10990;48.174;9.782;2023-01-05T03:43:02;0.50;;;0.50;;
21657;SDS011;10990;48.174;9.782;2023-01-05T03:45:31;0.40;;;0.40;;
21657;SDS011;10990;48.174;9.782;2023-01-05T03:48:02;0.70;;;0.30;;
21657;SDS011;10990;48.174;9.782;2023-01-05T03:50:30;0.40;;;0.40;;
21657;SDS011;10990;48.174;9.782;2023-01-05T03:52:58;0.73;;;0.47;;
21657;SDS011;10990;48.174;9.782;2023-01-05T03:55:27;0.83;;;0.50;;
21657;SDS011;10990;48.174;9.782;2023-01-05T03:57:54;0.63;;;0.50;;
21657;SDS011;10990;48.174;9.782;2023-01-05T04:00:21;0.37;;;0.37;;
21657;SDS011;10990;48.174;9.782;2023-01-05T04:02:57;0.70;;;0.47;;
21657;SDS011;10990;48.174;9.782;2023-01-05T04:05:24;0.70;;;0.50;;
21657;SDS011;10990;48.174;9.782;2023-01-05T04:07:52;0.40;;;0.40;;
21657;SDS011;10990;48.174;9.782;2023-01-05T04:10:19;0.63;;;0.60;;
21657;SDS011;10990;48.174;9.782;2023-01-05T04:12:46;0.33;;;0.33;;
21657;SDS011;10990;48.174;9.782;2023-01-05T04:15:15;0.40;;;0.40;;
21657;SDS011;10990;48.174;9.782;2023-01-05T04:17:42;0.63;;;0.50;;
21657;SDS011;10990;48.174;9.782;2023-01-05T04:20:11;0.63;;;0.40;;
21657;SDS011;10990;48.174;9.782;2023-01-05T04:22:39;0.50;;;0.40;;
21657;SDS011;10990;48.174;9.782;2023-01-05T04:25:08;0.40;;;0.40;;
21657;SDS011;10990;48.174;9.782;2023-01-05T04:27:36;0.50;;;0.50;;
21657;SDS011;10990;48.174;9.782;2023-01-05T04:30:04;0.50;;;0.50;;
21657;SDS011;10990;48.174;9.782;2023-01-05T04:32:32;0.30;;;0.30;;
21657;SDS011;10990;48.174;9.782;2023-01-05T04:34:59;0.43;;;0.40;;
21657;SDS011;10990;48.174;9.782;2023-01-05T04:37:26;0.30;;;0.23;;
21657;SDS011;10990;48.174;9.782;2023-01-05T04:39:53;0.30;;;0.30;;
21657;SDS011;10990;48.174;9.782;2023-01-05T04:42:22;0.50;;;0.50;;
21657;SDS011;10990;48.174;9.782;2023-01-05T04:44:52;0.50;;;0.40;;
21657;SDS011;10990;48.174;9.782;2023-01-05T04:47:19;0.23;;;0.23;;
21657;SDS011;10990;48.174;9.782;2023-01-05T04:49:48;0.40;;;0.40;;
21657;SDS011;10990;48.174;9.782;2023-01-05T04:52:16;0.40;;;0.40;;
21657;SDS011;10990;48.174;9.782;2023-01-05T04:54:43;0.57;;;0.40;;
21657;SDS011;10990;48.174;9.782;2023-01-05T04:57:10;0.63;;;0.50;;
21657;SDS011;10990;48.174;9.782;2023-01-05T04:59:39;0.30;;;0.30;;
21657;SDS011;10990;48.174;9.782;2023-01-05T05:02:07;0.40;;;0.40;;
21657;SDS011;10990;48.174;9.782;2023-01-05T05:04:34;0.63;;;0.63;;
21657;SDS011;10990;48.174;9.782;2023-01-05T05:07:02;0.40;;;0.40;;
21657;SDS011;10990;48.174;9.782;2023-01-05T05:09:31;0.77;;;0.50;;
21657;SDS011;10990;48.174;9.782;2023-01-05T05:11:58;0.60;;;0.60;;
21657;SDS011;10990;48.174;9.782;2023-01-05T05:14:25;1.33;;;0.60;;
21657;SDS011;10990;48.174;9.782;2023-01-05T05:16:57;0.93;;;0.60;;
21657;SDS011;10990;48.174;9.782;2023-01-05T05:19:24;1.17;;;0.60;;
21657;SDS011;10990;48.174;9.782;2023-01-05T05:21:52;1.47;;;0.60;;
21657;SDS011;10990;48.174;9.782;2023-01-05T05:24:19;0.60;;;0.60;;
21657;SDS011;10990;48.174;9.782;2023-01-05T05:26:48;1.47;;;0.70;;
21657;SDS011;10990;48.174;9.782;2023-01-05T05:29:14;0.77;;;0.50;;
21657;SDS011;10990;48.174;9.782;2023-01-05T05:31:41;0.60;;;0.60;;
21657;SDS011;10990;48.174;9.782;2023-01-05T05:34:09;0.70;;;0.70;;
21657;SDS011;10990;48.174;9.782;2023-01-05T05:36:36;0.70;;;0.70;;
21657;SDS011;10990;48.174;9.782;2023-01-05T05:39:03;0.50;;;0.50;;
21657;SDS011;10990;48.174;9.782;2023-01-05T05:41:29;0.60;;;0.60;;
21657;SDS011;10990;48.174;9.782;2023-01-05T05:43:56;0.60;;;0.43;;
21657;SDS011;10990;48.174;9.782;2023-01-05T05:46:25;0.50;;;0.50;;
21657;SDS011;10990;48.174;9.782;2023-01-05T05:48:52;0.40;;;0.40;;
21657;SDS011;10990;48.174;9.782;2023-01-05T05:51:20;0.40;;;0.40;;
21657;SDS011;10990;48.174;9.782;2023-01-05T05:53:47;0.60;;;0.40;;
21657;SDS011;10990;48.174;9.782;2023-01-05T05:56:14;0.40;;;0.40;;
21657;SDS011;10990;48.174;9.782;2023-01-05T05:58:40;0.40;;;0.40;;
21657;SDS011;10990;48.174;9.782;2023-01-05T06:01:07;0.50;;;0.40;;
21657;SDS011;10990;48.174;9.782;2023-01-05T06:03:34;0.53;;;0.50;;
21657;SDS011;10990;48.174;9.782;2023-01-05T06:06:01;1.43;;;0.40;;
21657;SDS011;10990;48.174;9.782;2023-01-05T06:08:30;0.77;;;0.40;;
21657;SDS011;10990;48.174;9.782;2023-01-05T06:10:57;0.40;;;0.40;;
21657;SDS011;10990;48.174;9.782;2023-01-05T06:13:24;0.40;;;0.40;;
21657;SDS011;10990;48.174;9.782;2023-01-05T06:15:51;0.23;;;0.20;;
21657;SDS011;10990;48.174;9.782;2023-01-05T06:18:18;0.30;;;0.30;;
21657;SDS011;10990;48.174;9.782;2023-01-05T06:20:44;0.30;;;0.30;;
21657;SDS011;10990;48.174;9.782;2023-01-05T06:23:11;0.47;;;0.40;;
21657;SDS011;10990;48.174;9.782;2023-01-05T06:25:39;0.33;;;0.30;;
21657;SDS011;10990;48.174;9.782;2023-01-05T06:28:06;0.30;;;0.30;;
21657;SDS011;10990;48.174;9.782;2023-01-05T06:30:33;0.63;;;0.40;;
21657;SDS011;10990;48.174;9.782;2023-01-05T06:32:59;0.27;;;0.27;;
21657;SDS011;10990;48.174;9.782;2023-01-05T06:35:26;0.77;;;0.40;;
21657;SDS011;10990;48.174;9.782;2023-01-05T06:37:53;0.30;;;0.30;;
21657;SDS011;10990;48.174;9.782;2023-01-05T06:40:19;0.30;;;0.30;;
21657;SDS011;10990;48.174;9.782;2023-01-05T06:42:47;0.37;;;0.33;;
21657;SDS011;10990;48.174;9.782;2023-01-05T06:45:14;0.30;;;0.30;;
21657;SDS011;10990;48.174;9.782;2023-01-05T06:47:42;0.40;;;0.40;;
21657;SDS011;10990;48.174;9.782;2023-01-05T06:50:09;0.10;;;0.10;;
21657;SDS011;10990;48.174;9.782;2023-01-05T06:52:36;0.40;;;0.33;;
21657;SDS011;10990;48.174;9.782;2023-01-05T06:55:04;0.30;;;0.30;;
21657;SDS011;10990;48.174;9.782;2023-01-05T06:57:32;0.30;;;0.30;;
21657;SDS011;10990;48.174;9.782;2023-01-05T07:00:02;0.70;;;0.30;;
21657;SDS011;10990;48.174;9.782;2023-01-05T07:02:30;0.20;;;0.20;;
21657;SDS011;10990;48.174;9.782;2023-01-05T07:04:57;0.40;;;0.40;;
21657;SDS011;10990;48.174;9.782;2023-01-05T07:07:24;0.13;;;0.13;;
21657;SDS011;10990;48.174;9.782;2023-01-05T07:09:50;0.30;;;0.23;;
21657;SDS011;10990;48.174;9.782;2023-01-05T07:12:17;0.20;;;0.20;;
21657;SDS011;10990;48.174;9.782;2023-01-05T07:14:44;0.73;;;0.50;;
21657;SDS011;10990;48.174;9.782;2023-01-05T07:17:12;0.30;;;0.30;;
21657;SDS011;10990;48.174;9.782;2023-01-05T07:19:38;0.20;;;0.20;;
21657;SDS011;10990;48.174;9.782;2023-01-05T07:22:05;0.10;;;0.10;;
21657;SDS011;10990;48.174;9.782;2023-01-05T07:24:32;0.20;;;0.13;;
21657;SDS011;10990;48.174;9.782;2023-01-05T07:26:59;0.20;;;0.20;;
21657;SDS011;10990;48.174;9.782;2023-01-05T07:29:25;0.27;;;0.20;;
21657;SDS011;10990;48.174;9.782;2023-01-05T07:31:52;0.20;;;0.20;;
21657;SDS011;10990;48.174;9.782;2023-01-05T07:34:21;0.40;;;0.40;;
21657;SDS011;10990;48.174;9.782;2023-01-05T07:36:48;0.60;;;0.40;;
21657;SDS011;10990;48.174;9.782;2023-01-05T07:39:15;0.20;;;0.20;;
21657;SDS011;10990;48.174;9.782;2023-01-05T07:41:42;0.60;;;0.30;;
21657;SDS011;10990;48.174;9.782;2023-01-05T07:44:09;0.30;;;0.30;;
21657;SDS011;10990;48.174;9.782;2023-01-05T07:46:36;0.30;;;0.30;;
21657;SDS011;10990;48.174;9.782;2023-01-05T07:49:02;0.30;;;0.30;;
21657;SDS011;10990;48.174;9.782;2023-01-05T07:51:31;0.40;;;0.20;;
21657;SDS011;10990;48.174;9.782;2023-01-05T07:53:57;0.53;;;0.50;;
21657;SDS011;10990;48.174;9.782;2023-01-05T07:56:24;0.40;;;0.40;;
21657;SDS011;10990;48.174;9.782;2023-01-05T07:58:51;0.57;;;0.20;;
21657;SDS011;10990;48.174;9.782;2023-01-05T08:01:17;0.30;;;0.30;;
21657;SDS011;10990;48.174;9.782;2023-01-05T08:03:44;0.77;;;0.40;;
21657;SDS011;10990;48.174;9.782;2023-01-05T08:06:12;0.40;;;0.37;;
21657;SDS011;10990;48.174;9.782;2023-01-05T08:08:41;0.30;;;0.30;;
21657;SDS011;10990;48.174;9.782;2023-01-05T08:11:08;0.30;;;0.30;;
21657;SDS011;10990;48.174;9.782;2023-01-05T08:13:39;0.20;;;0.20;;
21657;SDS011;10990;48.174;9.782;2023-01-05T08:16:23;0.20;;;0.20;;
21657;SDS011;10990;48.174;9.782;2023-01-05T08:18:50;0.37;;;0.37;;
21657;SDS011;10990;48.174;9.782;2023-01-05T08:21:17;0.33;;;0.20;;
21657;SDS011;10990;48.174;9.782;2023-01-05T08:23:45;0.30;;;0.30;;
21657;SDS011;10990;48.174;9.782;2023-01-05T08:26:14;0.60;;;0.40;;
21657;SDS011;10990;48.174;9.782;2023-01-05T08:28:42;0.40;;;0.37;;
21657;SDS011;10990;48.174;9.782;2023-01-05T08:31:11;0.40;;;0.40;;
21657;SDS011;10990;48.174;9.782;2023-01-05T08:33:44;0.30;;;0.30;;
21657;SDS011;10990;48.174;9.782;2023-01-05T08:36:12;0.47;;;0.43;;
21657;SDS011;10990;48.174;9.782;2023-01-05T08:38:40;0.83;;;0.60;;
21657;SDS011;10990;48.174;9.782;2023-01-05T08:41:14;0.50;;;0.40;;
21657;SDS011;10990;48.174;9.782;2023-01-05T08:43:41;0.40;;;0.30;;
21657;SDS011;10990;48.174;9.782;2023-01-05T08:46:08;0.30;;;0.30;;
21657;SDS011;10990;48.174;9.782;2023-01-05T08:48:35;0.30;;;0.30;;
21657;SDS011;10990;48.174;9.782;2023-01-05T08:51:02;0.23;;;0.23;;
21657;SDS011;10990;48.174;9.782;2023-01-05T08:53:31;0.60;;;0.40;;
21657;SDS011;10990;48.174;9.782;2023-01-05T08:55:58;0.27;;;0.27;;
21657;SDS011;10990;48.174;9.782;2023-01-05T08:58:26;0.30;;;0.30;;
21657;SDS011;10990;48.174;9.782;2023-01-05T09:00:54;0.40;;;0.40;;
21657;SDS011;10990;48.174;9.782;2023-01-05T09:03:21;0.40;;;0.40;;
21657;SDS011;10990;48.174;9.782;2023-01-05T09:05:50;0.37;;;0.37;;
21657;SDS011;10990;48.174;9.782;2023-01-05T09:08:17;0.47;;;0.40;;
21657;SDS011;10990;48.174;9.782;2023-01-05T09:10:44;1.33;;;0.50;;
21657;SDS011;10990;48.174;9.782;2023-01-05T09:13:11;0.97;;;0.30;;
21657;SDS011;10990;48.174;9.782;2023-01-05T09:15:39;1.20;;;0.43;;
21657;SDS011;10990;48.174;9.782;2023-01-05T09:18:05;0.50;;;0.50;;
21657;SDS011;10990;48.174;9.782;2023-01-05T09:20:32;0.73;;;0.40;;
21657;SDS011;10990;48.174;9.782;2023-01-05T09:22:59;1.27;;;0.40;;
21657;SDS011;10990;48.174;9.782;2023-01-05T09:25:26;1.27;;;0.40;;
21657;SDS011;10990;48.174;9.782;2023-01-05T09:27:52;0.87;;;0.40;;
21657;SDS011;10990;48.174;9.782;2023-01-05T09:30:19;0.50;;;0.50;;
21657;SDS011;10990;48.174;9.782;2023-01-05T09:32:47;0.50;;;0.50;;
21657;SDS011;10990;48.174;9.782;2023-01-05T09:35:14;0.63;;;0.63;;
21657;SDS011;10990;48.174;9.782;2023-01-05T09:37:41;1.30;;;0.50;;
21657;SDS011;10990;48.174;9.782;2023-01-05T09:40:08;0.50;;;0.50;;
21657;SDS011;10990;48.174;9.782;2023-01-05T09:42:38;0.60;;;0.50;;
21657;SDS011;10990;48.174;9.782;2023-01-05T09:45:09;0.60;;;0.40;;
21657;SDS011;10990;48.174;9.782;2023-01-05T09:47:38;0.70;;;0.60;;
21657;SDS011;10990;48.174;9.782;2023-01-05T09:50:16;0.40;;;0.40;;
21657;SDS011;10990;48.174;9.782;2023-01-05T09:52:45;0.50;;;0.50;;
21657;SDS011;10990;48.174;9.782;2023-01-05T09:55:13;0.63;;;0.63;;
21657;SDS011;10990;48.174;9.782;2023-01-05T09:57:41;0.53;;;0.40;;
21657;SDS011;10990;48.174;9.782;2023-01-05T10:00:14;0.60;;;0.60;;
21657;SDS011;10990;48.174;9.782;2023-01-05T10:02:43;0.60;;;0.50;;
21657;SDS011;10990;48.174;9.782;2023-01-05T10:05:16;1.83;;;0.60;;
21657;SDS011;10990;48.174;9.782;2023-01-05T10:07:45;0.63;;;0.63;;
21657;SDS011;10990;48.174;9.782;2023-01-05T10:10:26;0.73;;;0.73;;
21657;SDS011;10990;48.174;9.782;2023-01-05T10:13:04;0.70;;;0.70;;
21657;SDS011;10990;48.174;9.782;2023-01-05T10:15:36;1.70;;;0.80;;
21657;SDS011;10990;48.174;9.782;2023-01-05T10:18:08;0.90;;;0.90;;
21657;SDS011;10990;48.174;9.782;2023-01-05T10:20:42;1.00;;;0.93;;
21657;SDS011;10990;48.174;9.782;2023-01-05T10:23:20;1.30;;;1.00;;
21657;SDS011;10990;48.174;9.782;2023-01-05T10:25:57;0.83;;;0.83;;
21657;SDS011;10990;48.174;9.782;2023-01-05T10:28:30;0.77;;;0.77;;
21657;SDS011;10990;48.174;9.782;2023-01-05T10:31:04;0.77;;;0.70;;
21657;SDS011;10990;48.174;9.782;2023-01-05T10:33:45;1.07;;;0.67;;
21657;SDS011;10990;48.174;9.782;2023-01-05T10:36:18;0.60;;;0.60;;
21657;SDS011;10990;48.174;9.782;2023-01-05T10:39:06;0.70;;;0.70;;
21657;SDS011;10990;48.174;9.782;2023-01-05T10:41:40;0.77;;;0.70;;
21657;SDS011;10990;48.174;9.782;2023-01-05T10:44:20;1.43;;;0.70;;
21657;SDS011;10990;48.174;9.782;2023-01-05T10:47:09;0.63;;;0.60;;
21657;SDS011;10990;48.174;9.782;2023-01-05T10:49:38;0.63;;;0.63;;
21657;SDS011;10990;48.174;9.782;2023-01-05T10:52:11;0.60;;;0.60;;
21657;SDS011;10990;48.174;9.782;2023-01-05T10:54:40;0.87;;;0.60;;
21657;SDS011;10990;48.174;9.782;2023-01-05T10:59:57;0.67;;;0.50;;
21657;SDS011;10990;48.174;9.782;2023-01-05T11:02:26;0.40;;;0.40;;
21657;SDS011;10990;48.174;9.782;2023-01-05T11:05:00;0.88;;;0.70;;
21657;SDS011;10990;48.174;9.782;2023-01-05T11:07:30;0.53;;;0.53;;
21657;SDS011;10990;48.174;9.782;2023-01-05T11:09:58;0.60;;;0.60;;
21657;SDS011;10990;48.174;9.782;2023-01-05T11:12:24;0.67;;;0.60;;
21657;SDS011;10990;48.174;9.782;2023-01-05T11:14:52;0.50;;;0.50;;
21657;SDS011;10990;48.174;9.782;2023-01-05T11:17:22;0.57;;;0.40;;
21657;SDS011;10990;48.174;9.782;2023-01-05T11:19:50;0.40;;;0.40;;
21657;SDS011;10990;48.174;9.782;2023-01-05T11:22:26;0.30;;;0.30;;
21657;SDS011;10990;48.174;9.782;2023-01-05T11:25:04;0.40;;;0.33;;
21657;SDS011;10990;48.174;9.782;2023-01-05T11:27:39;0.40;;;0.40;;
21657;SDS011;10990;48.174;9.782;2023-01-05T11:30:15;0.32;;;0.32;;
21657;SDS011;10990;48.174;9.782;2023-01-05T11:32:45;0.30;;;0.30;;
21657;SDS011;10990;48.174;9.782;2023-01-05T11:35:17;0.30;;;0.30;;
21657;SDS011;10990;48.174;9.782;2023-01-05T11:37:46;0.95;;;0.25;;
21657;SDS011;10990;48.174;9.782;2023-01-05T11:40:15;0.40;;;0.30;;
21657;SDS011;10990;48.174;9.782;2023-01-05T11:42:44;1.17;;;0.30;;
21657;SDS011;10990;48.174;9.782;2023-01-05T11:45:19;3.15;;;0.50;;
21657;SDS011;10990;48.174;9.782;2023-01-05T11:47:49;0.40;;;0.40;;
21657;SDS011;10990;48.174;9.782;2023-01-05T11:50:21;0.40;;;0.40;;
21657;SDS011;10990;48.174;9.782;2023-01-05T11:52:50;0.50;;;0.50;;
21657;SDS011;10990;48.174;9.782;2023-01-05T11:55:27;1.42;;;0.65;;
21657;SDS011;10990;48.174;9.782;2023-01-05T11:58:13;0.30;;;0.30;;
21657;SDS011;10990;48.174;9.782;2023-01-05T12:00:56;0.75;;;0.50;;
21657;SDS011;10990;48.174;9.782;2023-01-05T12:03:58;1.23;;;0.57;;
21657;SDS011;10990;48.174;9.782;2023-01-05T12:06:31;1.55;;;0.45;;
21657;SDS011;10990;48.174;9.782;2023-01-05T12:09:10;0.38;;;0.38;;
21657;SDS011;10990;48.174;9.782;2023-01-05T12:11:46;0.50;;;0.50;;
21657;SDS011;10990;48.174;9.782;2023-01-05T12:14:26;1.17;;;0.50;;
21657;SDS011;10990;48.174;9.782;2023-01-05T12:17:07;1.05;;;0.40;;
21657;SDS011;10990;48.174;9.782;2023-01-05T12:19:41;1.73;;;0.50;;
21657;SDS011;10990;48.174;9.782;2023-01-05T12:22:35;0.40;;;0.40;;
21657;SDS011;10990;48.174;9.782;2023-01-05T12:25:15;1.77;;;0.50;;
21657;SDS011;10990;48.174;9.782;2023-01-05T12:27:54;0.90;;;0.70;;
21657;SDS011;10990;48.174;9.782;2023-01-05T12:30:39;0.85;;;0.50;;
21657;SDS011;10990;48.174;9.782;2023-01-05T12:33:20;2.25;;;0.60;;
21657;SDS011;10990;48.174;9.782;2023-01-05T12:36:04;3.67;;;0.95;;
21657;SDS011;10990;48.174;9.782;2023-01-05T12:38:56;3.43;;;0.90;;
21657;SDS011;10990;48.174;9.782;2023-01-05T12:41:37;2.03;;;0.90;;
21657;SDS011;10990;48.174;9.782;2023-01-05T12:44:19;3.47;;;1.10;;
21657;SDS011;10990;48.174;9.782;2023-01-05T12:47:00;3.50;;;0.90;;
21657;SDS011;10990;48.174;9.782;2023-01-05T12:49:38;2.93;;;0.80;;
21657;SDS011;10990;48.174;9.782;2023-01-05T12:52:12;1.77;;;0.70;;
21657;SDS011;10990;48.174;9.782;2023-01-05T12:54:44;2.53;;;0.90;;
21657;SDS011;10990;48.174;9.782;2023-01-05T12:57:16;3.75;;;0.80;;
21657;SDS011;10990;48.174;9.782;2023-01-05T12:59:51;7.23;;;1.00;;
21657;SDS011;10990;48.174;9.782;2023-01-05T13:02:25;2.63;;;0.80;;
21657;SDS011;10990;48.174;9.782;2023-01-05T13:05:00;2.70;;;0.90;;
21657;SDS011;10990;48.174;9.782;2023-01-05T13:07:33;2.75;;;0.80;;
21657;SDS011;10990;48.174;9.782;2023-01-05T13:10:04;1.65;;;0.70;;
21657;SDS011;10990;48.174;9.782;2023-01-05T13:12:37;2.73;;;0.80;;
21657;SDS011;10990;48.174;9.782;2023-01-05T13:15:14;3.90;;;1.03;;
21657;SDS011;10990;48.174;9.782;2023-01-05T13:17:45;2.73;;;0.80;;
21657;SDS011;10990;48.174;9.782;2023-01-05T13:23:08;4.20;;;0.70;;
21657;SDS011;10990;48.174;9.782;2023-01-05T13:25:43;2.03;;;0.80;;
21657;SDS011;10990;48.174;9.782;2023-01-05T13:28:16;2.40;;;1.00;;
21657;SDS011;10990;48.174;9.782;2023-01-05T13:30:47;2.43;;;0.70;;
21657;SDS011;10990;48.174;9.782;2023-01-05T13:33:30;3.07;;;0.70;;
21657;SDS011;10990;48.174;9.782;2023-01-05T13:36:09;2.77;;;0.70;;
21657;SDS011;10990;48.174;9.782;2023-01-05T13:41:52;2.88;;;0.80;;
21657;SDS011;10990;48.174;9.782;2023-01-05T13:44:39;2.87;;;0.77;;
21657;SDS011;10990;48.174;9.782;2023-01-05T13:47:32;4.03;;;0.80;;
21657;SDS011;10990;48.174;9.782;2023-01-05T13:53:13;3.80;;;0.93;;
21657;SDS011;10990;48.174;9.782;2023-01-05T13:55:43;3.30;;;0.90;;
21657;SDS011;10990;48.174;9.782;2023-01-05T13:58:28;2.65;;;0.70;;
21657;SDS011;10990;48.174;9.782;2023-01-05T14:01:01;3.17;;;0.90;;
21657;SDS011;10990;48.174;9.782;2023-01-05T14:03:32;2.30;;;0.80;;
21657;SDS011;10990;48.174;9.782;2023-01-05T14:06:03;3.37;;;0.80;;
21657;SDS011;10990;48.174;9.782;2023-01-05T14:08:39;5.60;;;0.80;;
21657;SDS011;10990;48.174;9.782;2023-01-05T14:11:15;3.65;;;0.70;;
21657;SDS011;10990;48.174;9.782;2023-01-05T14:13:44;2.47;;;0.82;;
21657;SDS011;10990;48.174;9.782;2023-01-05T14:19:18;2.40;;;0.90;;
21657;SDS011;10990;48.174;9.782;2023-01-05T14:22:00;6.93;;;3.17;;
21657;SDS011;10990;48.174;9.782;2023-01-05T14:24:30;2.75;;;1.33;;
21657;SDS011;10990;48.174;9.782;2023-01-05T14:27:08;2.10;;;1.20;;
21657;SDS011;10990;48.174;9.782;2023-01-05T14:32:45;3.87;;;1.30;;
21657;SDS011;10990;48.174;9.782;2023-01-05T14:35:21;3.10;;;1.80;;
21657;SDS011;10990;48.174;9.782;2023-01-05T14:37:54;12.55;;;6.32;;
21657;SDS011;10990;48.174;9.782;2023-01-05T14:40:31;11.57;;;5.60;;
21657;SDS011;10990;48.174;9.782;2023-01-05T14:43:02;4.90;;;2.20;;
21657;SDS011;10990;48.174;9.782;2023-01-05T14:45:33;3.00;;;1.17;;
21657;SDS011;10990;48.174;9.782;2023-01-05T14:48:02;1.60;;;0.90;;
21657;SDS011;10990;48.174;9.782;2023-01-05T14:50:35;2.60;;;1.00;;
21657;SDS011;10990;48.174;9.782;2023-01-05T14:53:05;2.70;;;1.10;;
21657;SDS011;10990;48.174;9.782;2023-01-05T14:55:37;1.23;;;0.90;;
21657;SDS011;10990;48.174;9.782;2023-01-05T14:58:09;0.90;;;0.70;;
21657;SDS011;10990;48.174;9.782;2023-01-05T15:00:47;2.03;;;1.00;;
21657;SDS011;10990;48.174;9.782;2023-01-05T15:03:21;2.77;;;1.10;;
21657;SDS011;10990;48.174;9.782;2023-01-05T15:06:14;1.83;;;0.70;;
21657;SDS011;10990;48.174;9.782;2023-01-05T15:11:56;2.37;;;1.00;;
21657;SDS011;10990;48.174;9.782;2023-01-05T15:14:42;1.27;;;0.80;;
21657;SDS011;10990;48.174;9.782;2023-01-05T15:17:32;1.83;;;0.90;;
21657;SDS011;10990;48.174;9.782;2023-01-05T15:20:43;2.25;;;0.90;;
21657;SDS011;10990;48.174;9.782;2023-01-05T15:23:32;1.37;;;0.87;;
21657;SDS011;10990;48.174;9.782;2023-01-05T15:26:14;1.23;;;0.70;;
21657;SDS011;10990;48.174;9.782;2023-01-05T15:28:55;1.10;;;0.95;;
21657;SDS011;10990;48.174;9.782;2023-01-05T15:31:37;1.07;;;0.70;;
21657;SDS011;10990;48.174;9.782;2023-01-05T15:34:14;1.13;;;0.60;;
21657;SDS011;10990;48.174;9.782;2023-01-05T15:36:48;0.90;;;0.70;;
21657;SDS011;10990;48.174;9.782;2023-01-05T15:39:22;1.03;;;0.90;;